createdAt,value
2023-05-14T00:01:16.733Z,15.09
2023-05-14T00:06:19.699Z,13.77
2023-05-14T00:11:22.503Z,11.91
2023-05-14T00:16:25.533Z,12.41
2023-05-14T00:21:28.422Z,14.84
2023-05-14T00:26:31.396Z,12.94
2023-05-14T00:31:34.175Z,11.37
2023-05-14T00:36:37.043Z,12.22
2023-05-14T00:41:40.049Z,14.50
2023-05-14T00:46:43.896Z,12.50
2023-05-14T00:51:47.220Z,11.02
2023-05-14T00:56:51.113Z,12.65
2023-05-14T01:01:54.521Z,14.09
2023-05-14T01:07:21.063Z,11.82
2023-05-14T01:12:53.388Z,10.36
2023-05-14T01:18:01.985Z,13.13
2023-05-14T01:23:05.020Z,14.04
2023-05-14T01:28:19.434Z,11.77
2023-05-14T01:33:25.023Z,10.40
2023-05-14T01:38:31.852Z,11.24
2023-05-14T01:43:36.008Z,14.17
2023-05-14T01:48:38.983Z,12.37
2023-05-14T01:53:41.834Z,10.69
2023-05-14T01:58:44.817Z,11.30
2023-05-14T02:03:47.664Z,14.12
2023-05-14T02:08:51.000Z,12.31
2023-05-14T02:13:53.880Z,10.52
2023-05-14T02:18:56.790Z,9.51
2023-05-14T02:23:59.694Z,12.10
2023-05-14T02:29:02.518Z,13.22
2023-05-14T02:34:06.863Z,10.95
2023-05-14T02:39:09.671Z,9.88
2023-05-14T02:44:12.491Z,12.75
2023-05-14T02:49:15.271Z,12.76
2023-05-14T02:54:18.075Z,10.68
2023-05-14T02:59:20.854Z,9.44
2023-05-14T03:04:24.273Z,11.12
2023-05-14T03:09:27.101Z,13.54
2023-05-14T03:14:29.903Z,11.63
2023-05-14T03:19:32.724Z,9.99
2023-05-14T03:24:35.648Z,10.92
2023-05-14T03:29:38.514Z,13.53
2023-05-14T03:34:41.672Z,11.71
2023-05-14T03:39:44.491Z,10.21
2023-05-14T03:44:47.322Z,9.22
2023-05-14T03:49:50.201Z,9.39
2023-05-14T03:54:53.142Z,13.06
2023-05-14T03:59:55.931Z,14.60
2023-05-14T04:04:58.799Z,12.70
2023-05-14T04:10:04.539Z,11.07
2023-05-14T04:15:08.833Z,10.24
2023-05-14T04:20:11.804Z,11.34
2023-05-14T04:25:14.619Z,14.94
2023-05-14T04:30:17.755Z,15.16
2023-05-14T04:35:23.443Z,13.26
2023-05-14T04:40:28.018Z,12.29
2023-05-14T04:45:34.292Z,13.24
2023-05-14T04:50:37.353Z,16.35
2023-05-14T04:55:40.164Z,15.15
2023-05-14T05:00:43.092Z,13.97
2023-05-14T05:05:45.892Z,13.35
2023-05-14T05:10:48.813Z,12.97
2023-05-14T05:15:51.669Z,14.30
2023-05-14T05:20:54.563Z,17.34
2023-05-14T05:25:57.380Z,16.21
2023-05-14T05:31:00.288Z,15.34
2023-05-14T05:36:03.287Z,14.92
2023-05-14T05:41:06.569Z,14.69
2023-05-14T05:46:09.471Z,14.62
2023-05-14T05:51:12.296Z,14.66
2023-05-14T05:56:15.147Z,14.77
2023-05-14T06:01:17.945Z,14.96
2023-05-14T06:06:21.893Z,15.19
2023-05-14T06:11:25.460Z,17.73
2023-05-14T06:16:28.362Z,19.16
2023-05-14T06:21:31.088Z,18.24
2023-05-14T06:26:33.898Z,17.97
2023-05-14T06:31:36.650Z,17.94
2023-05-14T06:36:39.577Z,18.02
2023-05-14T06:41:42.384Z,18.17
2023-05-14T06:46:45.146Z,18.36
2023-05-14T06:51:47.991Z,18.55
2023-05-14T06:56:50.832Z,18.79
2023-05-14T07:01:53.750Z,19.06
2023-05-14T07:06:56.667Z,19.36
2023-05-14T07:11:59.482Z,19.60
2023-05-14T07:17:02.412Z,19.84
2023-05-14T07:22:05.607Z,20.10
2023-05-14T07:27:09.149Z,20.36
2023-05-14T07:32:14.722Z,20.65
2023-05-14T07:37:19.040Z,20.98
2023-05-14T07:42:34.479Z,21.29
2023-05-14T07:47:40.721Z,21.58
2023-05-14T07:52:43.782Z,21.84
2023-05-14T07:57:46.605Z,22.02
2023-05-14T08:02:50.487Z,22.19
2023-05-14T08:07:53.484Z,22.38
2023-05-14T08:12:56.387Z,22.58
2023-05-14T08:18:03.653Z,22.73
2023-05-14T08:23:07.598Z,22.92
2023-05-14T08:28:10.424Z,23.11
2023-05-14T08:33:13.469Z,23.30
2023-05-14T08:38:16.357Z,23.49
2023-05-14T08:43:22.904Z,23.67
2023-05-14T08:48:29.394Z,23.82
2023-05-14T08:53:32.295Z,23.98
2023-05-14T08:58:35.103Z,24.13
2023-05-14T09:03:38.836Z,24.26
2023-05-14T09:08:41.965Z,24.43
2023-05-14T09:13:44.776Z,24.68
2023-05-14T09:18:48.172Z,24.88
2023-05-14T09:23:55.465Z,25.09
2023-05-14T09:29:02.782Z,25.30
2023-05-14T09:34:05.955Z,25.38
2023-05-14T09:39:08.842Z,25.44
2023-05-14T09:44:11.708Z,25.64
2023-05-14T09:49:15.116Z,25.92
2023-05-14T09:54:17.992Z,25.98
2023-05-14T09:59:20.830Z,25.95
2023-05-14T10:04:24.483Z,25.73
2023-05-14T10:09:29.836Z,25.48
2023-05-14T10:14:38.820Z,25.22
2023-05-14T10:19:42.002Z,25.13
2023-05-14T10:24:46.234Z,25.43
2023-05-14T10:29:56.371Z,25.88
2023-05-14T10:35:01.832Z,26.31
2023-05-14T10:40:06.835Z,26.52
2023-05-14T10:45:12.821Z,26.36
2023-05-14T10:50:16.249Z,26.59
2023-05-14T10:55:19.119Z,26.85
2023-05-14T11:00:26.194Z,26.94
2023-05-14T11:05:29.360Z,26.93
2023-05-14T11:10:32.581Z,27.04
2023-05-14T11:15:36.235Z,27.49
2023-05-14T11:20:39.177Z,27.83
2023-05-14T11:25:43.008Z,27.59
2023-05-14T11:30:46.525Z,27.01
2023-05-14T11:35:49.490Z,26.86
2023-05-14T11:40:56.828Z,26.83
2023-05-14T11:45:59.773Z,26.59
2023-05-14T11:51:02.663Z,26.19
2023-05-14T11:56:07.603Z,25.75
2023-05-14T12:01:13.792Z,25.42
2023-05-14T12:06:16.593Z,25.37
2023-05-14T12:11:21.378Z,25.47
2023-05-14T12:16:24.244Z,25.76
2023-05-14T12:21:28.014Z,26.02
2023-05-14T12:26:34.264Z,25.92
2023-05-14T12:31:37.088Z,25.74
2023-05-14T12:36:39.945Z,25.56
2023-05-14T12:41:42.732Z,25.42
2023-05-14T12:46:46.196Z,25.27
2023-05-14T12:51:51.175Z,25.16
2023-05-14T12:56:55.663Z,25.12
2023-05-14T13:01:58.498Z,25.05
2023-05-14T13:07:01.332Z,25.14
2023-05-14T13:12:04.675Z,25.80
2023-05-14T13:17:08.277Z,26.29
2023-05-14T13:22:11.211Z,26.57
2023-05-14T13:27:14.025Z,27.26
2023-05-14T13:32:16.883Z,27.71
2023-05-14T13:37:20.077Z,27.60
2023-05-14T13:42:23.758Z,27.29
2023-05-14T13:47:27.029Z,27.00
2023-05-14T13:52:29.891Z,27.10
2023-05-14T13:57:32.723Z,27.68
2023-05-14T14:02:35.605Z,28.06
2023-05-14T14:07:40.676Z,28.52
2023-05-14T14:12:43.486Z,29.08
2023-05-14T14:17:46.377Z,29.43
2023-05-14T14:22:49.357Z,29.75
2023-05-14T14:27:52.281Z,30.32
2023-05-14T14:32:55.337Z,30.64
2023-05-14T14:37:58.290Z,30.41
2023-05-14T14:43:02.244Z,29.79
2023-05-14T14:48:38.009Z,29.07
2023-05-14T14:53:40.913Z,28.17
2023-05-14T14:58:43.824Z,27.67
2023-05-14T15:03:48.411Z,27.73
2023-05-14T15:08:51.283Z,28.36
2023-05-14T15:13:54.068Z,29.44
2023-05-14T15:18:56.922Z,30.52
2023-05-14T15:23:59.908Z,30.85
2023-05-14T15:29:04.764Z,30.54
2023-05-14T15:34:07.691Z,29.72
2023-05-14T15:39:10.509Z,28.82
2023-05-14T15:44:13.297Z,27.97
2023-05-14T15:49:16.122Z,27.37
2023-05-14T15:54:18.966Z,27.50
2023-05-14T15:59:21.883Z,28.81
2023-05-14T16:04:25.294Z,30.33
2023-05-14T16:09:28.118Z,31.30
2023-05-14T16:14:31.099Z,31.92
2023-05-14T16:19:33.929Z,32.31
2023-05-14T16:24:36.776Z,32.80
2023-05-14T16:29:39.595Z,33.10
2023-05-14T16:34:47.542Z,32.75
2023-05-14T16:39:50.500Z,32.10
2023-05-14T16:44:53.387Z,32.04
2023-05-14T16:49:57.656Z,32.19
2023-05-14T16:55:00.589Z,31.82
2023-05-14T17:00:06.304Z,31.64
2023-05-14T17:05:09.483Z,31.57
2023-05-14T17:10:12.418Z,31.30
2023-05-14T17:15:15.246Z,30.92
2023-05-14T17:20:18.070Z,31.22
2023-05-14T17:25:24.038Z,31.87
2023-05-14T17:30:27.200Z,32.36
2023-05-14T17:35:30.095Z,32.10
2023-05-14T17:40:33.648Z,31.10
2023-05-14T17:45:46.284Z,29.88
2023-05-14T17:50:56.497Z,28.53
2023-05-14T17:55:59.707Z,27.32
2023-05-14T18:01:02.664Z,26.29
2023-05-14T18:06:05.846Z,25.31
2023-05-14T18:11:08.913Z,24.47
2023-05-14T18:16:11.742Z,23.72
2023-05-14T18:21:14.642Z,23.01
2023-05-14T18:26:17.872Z,22.36
2023-05-14T18:31:20.835Z,21.71
2023-05-14T18:36:23.792Z,21.07
2023-05-14T18:41:26.685Z,20.43
2023-05-14T18:46:29.702Z,19.81
2023-05-14T18:51:32.732Z,19.25
2023-05-14T18:56:37.575Z,18.73
2023-05-14T19:01:40.540Z,18.22
2023-05-14T19:06:43.924Z,17.78
2023-05-14T19:11:47.692Z,17.36
2023-05-14T19:16:50.868Z,16.96
2023-05-14T19:21:53.731Z,16.57
2023-05-14T19:26:56.421Z,16.20
2023-05-14T19:31:59.590Z,15.87
2023-05-14T19:37:03.050Z,15.57
2023-05-14T19:42:06.331Z,15.31
2023-05-14T19:47:09.388Z,15.06
2023-05-14T19:52:12.289Z,14.82
2023-05-14T19:57:15.076Z,14.58
2023-05-14T20:02:18.642Z,14.36
2023-05-14T20:07:21.678Z,14.12
2023-05-14T20:12:24.516Z,13.91
2023-05-14T20:17:27.428Z,13.71
2023-05-14T20:22:30.426Z,13.53
2023-05-14T20:27:33.208Z,13.36
2023-05-14T20:32:36.083Z,13.21
2023-05-14T20:37:39.221Z,13.07
2023-05-14T20:42:41.916Z,12.93
2023-05-14T20:47:44.974Z,12.79
2023-05-14T20:52:47.749Z,12.67
2023-05-14T20:57:50.670Z,12.57
2023-05-14T21:02:54.027Z,12.48
2023-05-14T21:07:56.914Z,12.39
2023-05-14T21:12:59.770Z,12.28
2023-05-14T21:18:03.161Z,12.17
2023-05-14T21:23:06.092Z,12.07
2023-05-14T21:28:09.155Z,11.99
2023-05-14T21:33:12.007Z,11.92
2023-05-14T21:38:15.361Z,11.86
2023-05-14T21:43:18.305Z,11.81
2023-05-14T21:48:21.838Z,11.75
2023-05-14T21:53:24.742Z,11.70
2023-05-14T21:58:27.732Z,11.64
2023-05-14T22:03:30.605Z,11.61
2023-05-14T22:08:33.462Z,11.58
2023-05-14T22:13:40.893Z,11.56
2023-05-14T22:18:44.257Z,11.55
2023-05-14T22:23:48.010Z,11.54
2023-05-14T22:28:50.872Z,11.50
2023-05-14T22:33:53.799Z,11.46
2023-05-14T22:38:56.599Z,11.43
2023-05-14T22:43:59.405Z,11.38
2023-05-14T22:49:02.321Z,11.32
2023-05-14T22:54:05.200Z,11.26
2023-05-14T22:59:08.067Z,11.19
2023-05-14T23:04:11.192Z,11.12
2023-05-14T23:09:13.919Z,11.03
2023-05-14T23:14:18.050Z,10.95
2023-05-14T23:19:21.987Z,10.87
2023-05-14T23:24:26.237Z,10.79
2023-05-14T23:29:29.072Z,10.68
2023-05-14T23:34:31.892Z,10.57
2023-05-14T23:39:34.725Z,10.47
2023-05-14T23:44:37.568Z,10.36
2023-05-14T23:49:41.011Z,11.50
2023-05-14T23:54:43.804Z,15.30
2023-05-14T23:59:46.894Z,15.15
